Pagina principale
METAR-TAF:

METAR-TAF

Aeroporti :

Sigonella, Italia

Base aerea di Sigonella

latitudine: 37-24N, longitudine: 014-55E, altezza: 22 m

Osservazione

Il bollettino è stato emesso 28 minuti fa, alle 11:55 UTC
Vento 20 kt da ovest
Temperature 17°C
Umidità 52%
Pressione 1014 hPa
Visibilità 10 km o più
Nubi sparse ad un'altezza di 2500 ft
Nubi sparse ad un'altezza di 8000 ft

METAR: LICZ 191155Z 27020KT 9999 SCT025 SCT080 17/07 Q1014 RMK BKN VIS MIN 9999 WIND THR28 28017KT WIND THR10 28016KT A2997 BLU

Ora: 13:23 (12:23 UTC)

Previsione

Il bollettino è stato emesso 1 ora e 23 minuti fa, alle 11:00 UTC
Previsione valida dal 19 alle 12 UTC al 19 alle 21 UTC
Vento 18 kt da ovest/nord-ovest
Visibilità 10 km o più
Nubi sparse ad un'altezza di 2000 ft
Nubi sparse ad un'altezza di 7000 ft

TAF: LICZ 191100Z 1912/1921 30018KT 9999 SCT020 SCT070

Osservazioni e previsioni meteorologiche di più di 4000 aeroporti (messaggi METAR e TAF).

Le stazioni disponibili sono rappresentate dai dischi gialli e rossi sulla carta.

Puntare il mouse per vedere il nome della stazione.

Clicca sopra per visualizzare le osservazioni e previsioni meteorologiche.

Per cambiare la mappa : fare clic sui pulsanti verdi con una croce nera per ingrandire, il pulsante verde con un trattino per diminuire, o sulla freccia verde per le mappe adiacenti.


METAR-TAF: